sensor_id;sensor_type;location;lat;lon;timestamp;temperature;humidity
19281;DHT22;9774;52.034;5.342;2024-01-25T00:01:07;12.40;61.70
19281;DHT22;9774;52.034;5.342;2024-01-25T00:03:35;12.40;61.70
19281;DHT22;9774;52.034;5.342;2024-01-25T00:06:04;12.40;61.80
19281;DHT22;9774;52.034;5.342;2024-01-25T00:08:33;12.30;61.70
19281;DHT22;9774;52.034;5.342;2024-01-25T00:11:01;12.30;61.70
19281;DHT22;9774;52.034;5.342;2024-01-25T00:13:28;12.20;61.70
19281;DHT22;9774;52.034;5.342;2024-01-25T00:15:55;12.20;61.80
19281;DHT22;9774;52.034;5.342;2024-01-25T00:18:23;12.20;61.80
19281;DHT22;9774;52.034;5.342;2024-01-25T00:20:50;12.10;61.80
19281;DHT22;9774;52.034;5.342;2024-01-25T00:23:18;12.10;61.80
19281;DHT22;9774;52.034;5.342;2024-01-25T00:25:45;12.10;61.90
19281;DHT22;9774;52.034;5.342;2024-01-25T00:28:12;12.00;61.90
19281;DHT22;9774;52.034;5.342;2024-01-25T00:30:39;12.00;62.00
19281;DHT22;9774;52.034;5.342;2024-01-25T00:33:06;12.00;62.00
19281;DHT22;9774;52.034;5.342;2024-01-25T00:35:34;11.90;62.00
19281;DHT22;9774;52.034;5.342;2024-01-25T00:38:02;11.90;62.00
19281;DHT22;9774;52.034;5.342;2024-01-25T00:40:31;11.80;62.00
19281;DHT22;9774;52.034;5.342;2024-01-25T00:42:59;11.80;62.10
19281;DHT22;9774;52.034;5.342;2024-01-25T00:45:26;11.80;62.10
19281;DHT22;9774;52.034;5.342;2024-01-25T00:47:54;11.70;62.10
19281;DHT22;9774;52.034;5.342;2024-01-25T00:50:22;11.70;62.10
19281;DHT22;9774;52.034;5.342;2024-01-25T00:52:51;11.60;62.10
19281;DHT22;9774;52.034;5.342;2024-01-25T00:55:19;11.60;62.20
19281;DHT22;9774;52.034;5.342;2024-01-25T00:57:49;11.50;62.20
19281;DHT22;9774;52.034;5.342;2024-01-25T01:00:19;11.50;62.20
19281;DHT22;9774;52.034;5.342;2024-01-25T01:02:47;11.50;62.20
19281;DHT22;9774;52.034;5.342;2024-01-25T01:05:15;11.40;62.20
19281;DHT22;9774;52.034;5.342;2024-01-25T01:07:43;11.40;62.20
19281;DHT22;9774;52.034;5.342;2024-01-25T01:10:11;11.30;62.20
19281;DHT22;9774;52.034;5.342;2024-01-25T01:12:39;11.30;62.30
19281;DHT22;9774;52.034;5.342;2024-01-25T01:15:08;11.20;62.30
19281;DHT22;9774;52.034;5.342;2024-01-25T01:17:36;11.10;62.30
19281;DHT22;9774;52.034;5.342;2024-01-25T01:20:03;11.10;62.40
19281;DHT22;9774;52.034;5.342;2024-01-25T01:22:30;11.10;62.50
19281;DHT22;9774;52.034;5.342;2024-01-25T01:24:57;11.00;62.50
19281;DHT22;9774;52.034;5.342;2024-01-25T01:27:24;11.00;62.60
19281;DHT22;9774;52.034;5.342;2024-01-25T01:29:51;10.90;62.50
19281;DHT22;9774;52.034;5.342;2024-01-25T01:32:20;10.90;62.50
19281;DHT22;9774;52.034;5.342;2024-01-25T01:34:47;10.80;62.60
19281;DHT22;9774;52.034;5.342;2024-01-25T01:37:14;10.80;62.70
19281;DHT22;9774;52.034;5.342;2024-01-25T01:39:41;10.70;62.70
19281;DHT22;9774;52.034;5.342;2024-01-25T01:42:08;10.70;62.70
19281;DHT22;9774;52.034;5.342;2024-01-25T01:44:35;10.70;62.80
19281;DHT22;9774;52.034;5.342;2024-01-25T01:47:02;10.60;62.80
19281;DHT22;9774;52.034;5.342;2024-01-25T01:49:31;10.60;62.90
19281;DHT22;9774;52.034;5.342;2024-01-25T01:51:59;10.60;62.90
19281;DHT22;9774;52.034;5.342;2024-01-25T01:54:26;10.50;62.90
19281;DHT22;9774;52.034;5.342;2024-01-25T01:56:53;10.40;63.00
19281;DHT22;9774;52.034;5.342;2024-01-25T01:59:21;10.40;63.00
19281;DHT22;9774;52.034;5.342;2024-01-25T02:01:51;10.30;63.00
19281;DHT22;9774;52.034;5.342;2024-01-25T02:04:18;10.30;63.10
19281;DHT22;9774;52.034;5.342;2024-01-25T02:06:46;10.30;63.20
19281;DHT22;9774;52.034;5.342;2024-01-25T02:09:14;10.20;63.20
19281;DHT22;9774;52.034;5.342;2024-01-25T02:11:41;10.20;63.90
19281;DHT22;9774;52.034;5.342;2024-01-25T02:14:08;10.10;63.20
19281;DHT22;9774;52.034;5.342;2024-01-25T02:16:37;10.10;63.40
19281;DHT22;9774;52.034;5.342;2024-01-25T02:19:04;10.10;63.50
19281;DHT22;9774;52.034;5.342;2024-01-25T02:21:31;10.00;63.50
19281;DHT22;9774;52.034;5.342;2024-01-25T02:24:00;10.00;63.50
19281;DHT22;9774;52.034;5.342;2024-01-25T02:26:27;10.00;63.60
19281;DHT22;9774;52.034;5.342;2024-01-25T02:28:54;9.90;63.70
19281;DHT22;9774;52.034;5.342;2024-01-25T02:31:21;9.90;63.70
19281;DHT22;9774;52.034;5.342;2024-01-25T02:33:48;9.90;63.60
19281;DHT22;9774;52.034;5.342;2024-01-25T02:36:15;9.80;63.60
19281;DHT22;9774;52.034;5.342;2024-01-25T02:38:42;9.80;63.60
19281;DHT22;9774;52.034;5.342;2024-01-25T02:41:10;9.80;63.60
19281;DHT22;9774;52.034;5.342;2024-01-25T02:43:37;9.70;63.60
19281;DHT22;9774;52.034;5.342;2024-01-25T02:46:04;9.70;63.50
19281;DHT22;9774;52.034;5.342;2024-01-25T02:48:31;9.70;63.50
19281;DHT22;9774;52.034;5.342;2024-01-25T02:50:58;9.60;63.50
19281;DHT22;9774;52.034;5.342;2024-01-25T02:53:25;9.60;63.50
19281;DHT22;9774;52.034;5.342;2024-01-25T02:55:52;9.60;63.40
19281;DHT22;9774;52.034;5.342;2024-01-25T02:58:21;9.50;63.40
19281;DHT22;9774;52.034;5.342;2024-01-25T03:00:48;9.50;63.50
19281;DHT22;9774;52.034;5.342;2024-01-25T03:03:15;9.40;63.50
19281;DHT22;9774;52.034;5.342;2024-01-25T03:05:42;9.40;63.50
19281;DHT22;9774;52.034;5.342;2024-01-25T03:08:09;9.30;63.50
19281;DHT22;9774;52.034;5.342;2024-01-25T03:10:36;9.30;63.60
19281;DHT22;9774;52.034;5.342;2024-01-25T03:13:04;9.20;63.50
19281;DHT22;9774;52.034;5.342;2024-01-25T03:15:32;9.20;63.60
19281;DHT22;9774;52.034;5.342;2024-01-25T03:17:59;9.20;63.60
19281;DHT22;9774;52.034;5.342;2024-01-25T03:20:26;9.10;63.50
19281;DHT22;9774;52.034;5.342;2024-01-25T03:22:53;9.10;63.60
19281;DHT22;9774;52.034;5.342;2024-01-25T03:25:21;9.00;63.60
19281;DHT22;9774;52.034;5.342;2024-01-25T03:27:48;9.00;63.70
19281;DHT22;9774;52.034;5.342;2024-01-25T03:30:15;9.00;63.70
19281;DHT22;9774;52.034;5.342;2024-01-25T03:32:45;8.90;63.60
19281;DHT22;9774;52.034;5.342;2024-01-25T03:35:13;8.90;63.70
19281;DHT22;9774;52.034;5.342;2024-01-25T03:37:40;8.80;63.60
19281;DHT22;9774;52.034;5.342;2024-01-25T03:40:07;8.80;63.70
19281;DHT22;9774;52.034;5.342;2024-01-25T03:42:36;8.80;63.70
19281;DHT22;9774;52.034;5.342;2024-01-25T03:45:03;8.70;63.70
19281;DHT22;9774;52.034;5.342;2024-01-25T03:47:31;8.70;63.80
19281;DHT22;9774;52.034;5.342;2024-01-25T03:49:59;8.70;63.80
19281;DHT22;9774;52.034;5.342;2024-01-25T03:52:27;8.60;63.70
19281;DHT22;9774;52.034;5.342;2024-01-25T03:54:55;8.60;64.40
19281;DHT22;9774;52.034;5.342;2024-01-25T03:57:22;8.60;63.80
19281;DHT22;9774;52.034;5.342;2024-01-25T03:59:49;8.50;63.70
19281;DHT22;9774;52.034;5.342;2024-01-25T04:02:16;8.50;63.80
19281;DHT22;9774;52.034;5.342;2024-01-25T04:04:44;8.40;63.80
19281;DHT22;9774;52.034;5.342;2024-01-25T04:07:12;8.40;63.80
19281;DHT22;9774;52.034;5.342;2024-01-25T04:09:39;8.30;63.70
19281;DHT22;9774;52.034;5.342;2024-01-25T04:12:06;8.30;63.70
19281;DHT22;9774;52.034;5.342;2024-01-25T04:14:34;8.30;63.70
19281;DHT22;9774;52.034;5.342;2024-01-25T04:17:01;8.20;63.70
19281;DHT22;9774;52.034;5.342;2024-01-25T04:19:28;8.20;63.70
19281;DHT22;9774;52.034;5.342;2024-01-25T04:21:55;8.10;63.70
19281;DHT22;9774;52.034;5.342;2024-01-25T04:24:23;8.10;63.70
19281;DHT22;9774;52.034;5.342;2024-01-25T04:26:50;8.10;63.70
19281;DHT22;9774;52.034;5.342;2024-01-25T04:29:17;8.00;63.70
19281;DHT22;9774;52.034;5.342;2024-01-25T04:31:45;8.00;63.80
19281;DHT22;9774;52.034;5.342;2024-01-25T04:34:14;8.00;63.70
19281;DHT22;9774;52.034;5.342;2024-01-25T04:36:42;7.90;63.70
19281;DHT22;9774;52.034;5.342;2024-01-25T04:39:09;7.90;63.80
19281;DHT22;9774;52.034;5.342;2024-01-25T04:41:38;7.90;63.90
19281;DHT22;9774;52.034;5.342;2024-01-25T04:44:05;7.80;63.90
19281;DHT22;9774;52.034;5.342;2024-01-25T04:46:32;7.80;64.00
19281;DHT22;9774;52.034;5.342;2024-01-25T04:49:02;7.80;64.00
19281;DHT22;9774;52.034;5.342;2024-01-25T04:51:29;7.70;64.00
19281;DHT22;9774;52.034;5.342;2024-01-25T04:53:56;7.70;64.00
19281;DHT22;9774;52.034;5.342;2024-01-25T04:56:23;7.70;64.00
19281;DHT22;9774;52.034;5.342;2024-01-25T04:58:51;7.60;64.00
19281;DHT22;9774;52.034;5.342;2024-01-25T05:01:18;7.60;64.00
19281;DHT22;9774;52.034;5.342;2024-01-25T05:03:45;7.60;64.10
19281;DHT22;9774;52.034;5.342;2024-01-25T05:06:13;7.60;64.10
19281;DHT22;9774;52.034;5.342;2024-01-25T05:08:41;7.50;64.10
19281;DHT22;9774;52.034;5.342;2024-01-25T05:11:09;7.50;64.10
19281;DHT22;9774;52.034;5.342;2024-01-25T05:13:36;7.50;64.10
19281;DHT22;9774;52.034;5.342;2024-01-25T05:16:05;7.50;64.10
19281;DHT22;9774;52.034;5.342;2024-01-25T05:18:32;7.40;64.00
19281;DHT22;9774;52.034;5.342;2024-01-25T05:20:59;7.40;64.10
19281;DHT22;9774;52.034;5.342;2024-01-25T05:23:26;7.40;64.00
19281;DHT22;9774;52.034;5.342;2024-01-25T05:25:53;7.40;64.00
19281;DHT22;9774;52.034;5.342;2024-01-25T05:28:20;7.30;64.10
19281;DHT22;9774;52.034;5.342;2024-01-25T05:30:49;7.30;64.20
19281;DHT22;9774;52.034;5.342;2024-01-25T05:33:18;7.30;64.20
19281;DHT22;9774;52.034;5.342;2024-01-25T05:35:45;7.30;64.30
19281;DHT22;9774;52.034;5.342;2024-01-25T05:38:12;7.30;64.40
19281;DHT22;9774;52.034;5.342;2024-01-25T05:40:39;7.20;64.30
19281;DHT22;9774;52.034;5.342;2024-01-25T05:43:08;7.20;64.20
19281;DHT22;9774;52.034;5.342;2024-01-25T05:45:35;7.20;64.30
19281;DHT22;9774;52.034;5.342;2024-01-25T05:48:02;7.20;64.30
19281;DHT22;9774;52.034;5.342;2024-01-25T05:50:31;7.20;64.30
19281;DHT22;9774;52.034;5.342;2024-01-25T05:52:58;7.10;64.30
19281;DHT22;9774;52.034;5.342;2024-01-25T05:55:25;7.10;64.40
19281;DHT22;9774;52.034;5.342;2024-01-25T05:57:52;7.10;65.10
19281;DHT22;9774;52.034;5.342;2024-01-25T06:00:19;7.10;64.50
19281;DHT22;9774;52.034;5.342;2024-01-25T06:02:46;7.10;64.60
19281;DHT22;9774;52.034;5.342;2024-01-25T06:05:14;7.10;64.70
19281;DHT22;9774;52.034;5.342;2024-01-25T06:07:42;7.10;65.40
19281;DHT22;9774;52.034;5.342;2024-01-25T06:10:10;7.10;64.70
19281;DHT22;9774;52.034;5.342;2024-01-25T06:12:37;7.10;64.60
19281;DHT22;9774;52.034;5.342;2024-01-25T06:15:05;7.10;64.60
19281;DHT22;9774;52.034;5.342;2024-01-25T06:17:33;7.10;64.60
19281;DHT22;9774;52.034;5.342;2024-01-25T06:20:01;7.10;64.70
19281;DHT22;9774;52.034;5.342;2024-01-25T06:22:28;7.10;64.70
19281;DHT22;9774;52.034;5.342;2024-01-25T06:24:56;7.00;64.80
19281;DHT22;9774;52.034;5.342;2024-01-25T06:27:23;7.10;64.80
19281;DHT22;9774;52.034;5.342;2024-01-25T06:29:50;7.10;64.80
19281;DHT22;9774;52.034;5.342;2024-01-25T06:32:17;7.00;64.80
19281;DHT22;9774;52.034;5.342;2024-01-25T06:34:44;7.00;64.90
19281;DHT22;9774;52.034;5.342;2024-01-25T06:37:11;7.00;64.90
19281;DHT22;9774;52.034;5.342;2024-01-25T06:39:40;7.00;65.00
19281;DHT22;9774;52.034;5.342;2024-01-25T06:42:09;7.10;65.10
19281;DHT22;9774;52.034;5.342;2024-01-25T06:44:36;7.10;65.10
19281;DHT22;9774;52.034;5.342;2024-01-25T06:47:03;7.10;65.10
19281;DHT22;9774;52.034;5.342;2024-01-25T06:49:31;7.10;65.10
19281;DHT22;9774;52.034;5.342;2024-01-25T06:51:58;7.10;65.20
19281;DHT22;9774;52.034;5.342;2024-01-25T06:54:25;7.10;65.20
19281;DHT22;9774;52.034;5.342;2024-01-25T06:56:52;7.10;65.20
19281;DHT22;9774;52.034;5.342;2024-01-25T06:59:23;7.10;65.10
19281;DHT22;9774;52.034;5.342;2024-01-25T07:01:50;7.00;65.00
19281;DHT22;9774;52.034;5.342;2024-01-25T07:04:17;7.10;65.00
19281;DHT22;9774;52.034;5.342;2024-01-25T07:06:44;7.00;65.00
19281;DHT22;9774;52.034;5.342;2024-01-25T07:09:11;7.10;65.10
19281;DHT22;9774;52.034;5.342;2024-01-25T07:11:38;7.10;65.20
19281;DHT22;9774;52.034;5.342;2024-01-25T07:14:06;7.10;65.20
19281;DHT22;9774;52.034;5.342;2024-01-25T07:16:34;7.10;65.30
19281;DHT22;9774;52.034;5.342;2024-01-25T07:19:01;7.10;65.30
19281;DHT22;9774;52.034;5.342;2024-01-25T07:21:28;7.10;65.30
19281;DHT22;9774;52.034;5.342;2024-01-25T07:23:58;7.10;65.30
19281;DHT22;9774;52.034;5.342;2024-01-25T07:26:29;7.10;65.40
19281;DHT22;9774;52.034;5.342;2024-01-25T07:28:56;7.10;65.50
19281;DHT22;9774;52.034;5.342;2024-01-25T07:31:25;7.10;65.50
19281;DHT22;9774;52.034;5.342;2024-01-25T07:33:54;7.20;65.60
19281;DHT22;9774;52.034;5.342;2024-01-25T07:36:21;7.20;65.60
19281;DHT22;9774;52.034;5.342;2024-01-25T07:38:48;7.20;65.60
19281;DHT22;9774;52.034;5.342;2024-01-25T07:41:16;7.20;65.60
19281;DHT22;9774;52.034;5.342;2024-01-25T07:43:43;7.30;65.60
19281;DHT22;9774;52.034;5.342;2024-01-25T07:46:10;7.20;65.60
19281;DHT22;9774;52.034;5.342;2024-01-25T07:48:40;7.30;65.70
19281;DHT22;9774;52.034;5.342;2024-01-25T07:51:12;7.30;65.80
19281;DHT22;9774;52.034;5.342;2024-01-25T07:53:39;7.40;65.90
19281;DHT22;9774;52.034;5.342;2024-01-25T07:56:07;7.30;65.80
19281;DHT22;9774;52.034;5.342;2024-01-25T07:58:36;7.40;65.80
19281;DHT22;9774;52.034;5.342;2024-01-25T08:01:04;7.40;65.70
19281;DHT22;9774;52.034;5.342;2024-01-25T08:03:32;7.40;65.60
19281;DHT22;9774;52.034;5.342;2024-01-25T08:05:59;7.50;65.70
19281;DHT22;9774;52.034;5.342;2024-01-25T08:08:28;7.50;65.70
19281;DHT22;9774;52.034;5.342;2024-01-25T08:10:55;7.50;65.70
19281;DHT22;9774;52.034;5.342;2024-01-25T08:13:22;7.60;65.80
19281;DHT22;9774;52.034;5.342;2024-01-25T08:15:50;7.60;65.80
19281;DHT22;9774;52.034;5.342;2024-01-25T08:18:18;7.60;65.70
19281;DHT22;9774;52.034;5.342;2024-01-25T08:20:48;7.60;65.70
19281;DHT22;9774;52.034;5.342;2024-01-25T08:23:16;7.70;65.70
19281;DHT22;9774;52.034;5.342;2024-01-25T08:25:45;7.70;65.70
19281;DHT22;9774;52.034;5.342;2024-01-25T08:28:12;7.70;65.60
19281;DHT22;9774;52.034;5.342;2024-01-25T08:30:39;7.70;65.60
19281;DHT22;9774;52.034;5.342;2024-01-25T08:33:06;7.70;65.70
19281;DHT22;9774;52.034;5.342;2024-01-25T08:35:33;7.80;65.80
19281;DHT22;9774;52.034;5.342;2024-01-25T08:38:00;7.80;65.90
19281;DHT22;9774;52.034;5.342;2024-01-25T08:40:28;7.90;66.00
19281;DHT22;9774;52.034;5.342;2024-01-25T08:42:57;7.90;65.90
19281;DHT22;9774;52.034;5.342;2024-01-25T08:45:24;7.90;65.90
19281;DHT22;9774;52.034;5.342;2024-01-25T08:47:51;8.00;66.00
19281;DHT22;9774;52.034;5.342;2024-01-25T08:50:18;8.00;66.00
19281;DHT22;9774;52.034;5.342;2024-01-25T08:52:45;8.00;66.00
19281;DHT22;9774;52.034;5.342;2024-01-25T08:55:12;8.10;66.80
19281;DHT22;9774;52.034;5.342;2024-01-25T08:57:39;8.10;66.20
19281;DHT22;9774;52.034;5.342;2024-01-25T09:00:09;8.20;66.30
19281;DHT22;9774;52.034;5.342;2024-01-25T09:02:37;8.20;66.30
19281;DHT22;9774;52.034;5.342;2024-01-25T09:05:06;8.30;66.40
19281;DHT22;9774;52.034;5.342;2024-01-25T09:07:34;8.30;66.50
19281;DHT22;9774;52.034;5.342;2024-01-25T09:10:01;8.40;66.60
19281;DHT22;9774;52.034;5.342;2024-01-25T09:12:30;8.50;66.70
19281;DHT22;9774;52.034;5.342;2024-01-25T09:14:57;8.50;66.80
19281;DHT22;9774;52.034;5.342;2024-01-25T09:17:25;8.60;66.80
19281;DHT22;9774;52.034;5.342;2024-01-25T09:19:52;8.70;66.90
19281;DHT22;9774;52.034;5.342;2024-01-25T09:22:19;8.80;67.00
19281;DHT22;9774;52.034;5.342;2024-01-25T09:24:46;8.80;67.00
19281;DHT22;9774;52.034;5.342;2024-01-25T09:27:14;8.90;67.00
19281;DHT22;9774;52.034;5.342;2024-01-25T09:29:41;9.00;67.00
19281;DHT22;9774;52.034;5.342;2024-01-25T09:32:09;9.10;67.10
19281;DHT22;9774;52.034;5.342;2024-01-25T09:34:38;9.10;67.10
19281;DHT22;9774;52.034;5.342;2024-01-25T09:37:05;9.20;67.20
19281;DHT22;9774;52.034;5.342;2024-01-25T09:39:32;9.30;67.20
19281;DHT22;9774;52.034;5.342;2024-01-25T09:42:01;9.30;67.70
19281;DHT22;9774;52.034;5.342;2024-01-25T09:44:29;9.40;67.00
19281;DHT22;9774;52.034;5.342;2024-01-25T09:46:57;9.50;67.00
19281;DHT22;9774;52.034;5.342;2024-01-25T09:49:25;9.50;67.00
19281;DHT22;9774;52.034;5.342;2024-01-25T09:51:54;9.60;67.00
19281;DHT22;9774;52.034;5.342;2024-01-25T09:54:23;9.60;66.90
19281;DHT22;9774;52.034;5.342;2024-01-25T09:56:52;9.70;66.90
19281;DHT22;9774;52.034;5.342;2024-01-25T09:59:21;9.80;66.90
19281;DHT22;9774;52.034;5.342;2024-01-25T10:01:49;9.80;66.90
19281;DHT22;9774;52.034;5.342;2024-01-25T10:04:16;9.90;66.90
19281;DHT22;9774;52.034;5.342;2024-01-25T10:06:45;9.90;66.90
19281;DHT22;9774;52.034;5.342;2024-01-25T10:09:13;10.00;66.90
19281;DHT22;9774;52.034;5.342;2024-01-25T10:11:40;10.10;67.00
19281;DHT22;9774;52.034;5.342;2024-01-25T10:14:07;10.10;67.00
19281;DHT22;9774;52.034;5.342;2024-01-25T10:16:35;10.20;67.00
19281;DHT22;9774;52.034;5.342;2024-01-25T10:19:06;10.30;67.10
19281;DHT22;9774;52.034;5.342;2024-01-25T10:21:35;10.30;67.00
19281;DHT22;9774;52.034;5.342;2024-01-25T10:24:04;10.40;67.00
19281;DHT22;9774;52.034;5.342;2024-01-25T10:26:34;10.40;66.90
19281;DHT22;9774;52.034;5.342;2024-01-25T10:29:01;10.50;67.00
19281;DHT22;9774;52.034;5.342;2024-01-25T10:31:30;10.60;67.10
19281;DHT22;9774;52.034;5.342;2024-01-25T10:33:59;10.70;67.30
19281;DHT22;9774;52.034;5.342;2024-01-25T10:36:27;10.80;67.10
19281;DHT22;9774;52.034;5.342;2024-01-25T10:38:55;10.80;67.00
19281;DHT22;9774;52.034;5.342;2024-01-25T10:41:23;10.90;66.90
19281;DHT22;9774;52.034;5.342;2024-01-25T10:43:53;11.00;66.90
19281;DHT22;9774;52.034;5.342;2024-01-25T10:46:20;11.00;66.70
19281;DHT22;9774;52.034;5.342;2024-01-25T10:48:48;11.10;66.70
19281;DHT22;9774;52.034;5.342;2024-01-25T10:51:16;11.10;66.70
19281;DHT22;9774;52.034;5.342;2024-01-25T10:53:45;11.20;66.70
19281;DHT22;9774;52.034;5.342;2024-01-25T10:56:13;11.20;66.70
19281;DHT22;9774;52.034;5.342;2024-01-25T10:58:41;11.30;66.80
19281;DHT22;9774;52.034;5.342;2024-01-25T11:01:10;11.40;66.80
19281;DHT22;9774;52.034;5.342;2024-01-25T11:03:39;11.40;66.80
19281;DHT22;9774;52.034;5.342;2024-01-25T11:06:08;11.50;66.80
19281;DHT22;9774;52.034;5.342;2024-01-25T11:08:35;11.60;66.80
19281;DHT22;9774;52.034;5.342;2024-01-25T11:11:06;11.60;66.80
19281;DHT22;9774;52.034;5.342;2024-01-25T11:13:35;11.70;66.90
19281;DHT22;9774;52.034;5.342;2024-01-25T11:16:14;11.70;66.80
19281;DHT22;9774;52.034;5.342;2024-01-25T11:18:48;11.80;66.80
19281;DHT22;9774;52.034;5.342;2024-01-25T11:21:25;11.80;66.60
19281;DHT22;9774;52.034;5.342;2024-01-25T11:24:00;11.90;66.70
19281;DHT22;9774;52.034;5.342;2024-01-25T11:26:28;12.00;66.60
19281;DHT22;9774;52.034;5.342;2024-01-25T11:28:56;12.00;66.50
19281;DHT22;9774;52.034;5.342;2024-01-25T11:31:27;12.10;66.50
19281;DHT22;9774;52.034;5.342;2024-01-25T11:33:57;12.10;66.50
19281;DHT22;9774;52.034;5.342;2024-01-25T11:36:25;12.20;66.50
19281;DHT22;9774;52.034;5.342;2024-01-25T11:38:53;12.20;66.40
19281;DHT22;9774;52.034;5.342;2024-01-25T11:41:20;12.30;66.30
19281;DHT22;9774;52.034;5.342;2024-01-25T11:43:48;12.30;66.30
19281;DHT22;9774;52.034;5.342;2024-01-25T11:46:17;12.30;66.20
19281;DHT22;9774;52.034;5.342;2024-01-25T11:48:46;12.40;66.20
19281;DHT22;9774;52.034;5.342;2024-01-25T11:51:13;12.40;66.20
19281;DHT22;9774;52.034;5.342;2024-01-25T11:53:40;12.50;66.10
19281;DHT22;9774;52.034;5.342;2024-01-25T11:56:11;12.50;66.00
19281;DHT22;9774;52.034;5.342;2024-01-25T11:58:42;12.60;66.00
19281;DHT22;9774;52.034;5.342;2024-01-25T12:01:12;12.60;65.90
19281;DHT22;9774;52.034;5.342;2024-01-25T12:03:40;12.60;65.70
19281;DHT22;9774;52.034;5.342;2024-01-25T12:06:09;12.60;65.70
19281;DHT22;9774;52.034;5.342;2024-01-25T12:08:36;12.60;65.80
19281;DHT22;9774;52.034;5.342;2024-01-25T12:11:04;12.70;65.80
19281;DHT22;9774;52.034;5.342;2024-01-25T12:13:38;12.70;65.80
19281;DHT22;9774;52.034;5.342;2024-01-25T12:16:07;12.70;65.80
19281;DHT22;9774;52.034;5.342;2024-01-25T12:18:35;12.80;65.80
19281;DHT22;9774;52.034;5.342;2024-01-25T12:21:04;12.80;65.80
19281;DHT22;9774;52.034;5.342;2024-01-25T12:23:34;12.80;65.80
19281;DHT22;9774;52.034;5.342;2024-01-25T12:26:04;12.90;65.80
19281;DHT22;9774;52.034;5.342;2024-01-25T12:28:32;12.90;65.80
19281;DHT22;9774;52.034;5.342;2024-01-25T12:31:00;13.00;65.90
19281;DHT22;9774;52.034;5.342;2024-01-25T12:33:29;13.00;65.70
19281;DHT22;9774;52.034;5.342;2024-01-25T12:35:56;13.10;65.60
19281;DHT22;9774;52.034;5.342;2024-01-25T12:38:24;13.10;65.40
19281;DHT22;9774;52.034;5.342;2024-01-25T12:40:54;13.10;65.20
19281;DHT22;9774;52.034;5.342;2024-01-25T12:43:22;13.10;65.10
19281;DHT22;9774;52.034;5.342;2024-01-25T12:45:49;13.20;65.00
19281;DHT22;9774;52.034;5.342;2024-01-25T12:48:17;13.20;65.10
19281;DHT22;9774;52.034;5.342;2024-01-25T12:50:45;13.20;65.00
19281;DHT22;9774;52.034;5.342;2024-01-25T12:53:12;13.20;64.90
19281;DHT22;9774;52.034;5.342;2024-01-25T12:55:41;13.20;64.80
19281;DHT22;9774;52.034;5.342;2024-01-25T12:58:09;13.20;64.70
19281;DHT22;9774;52.034;5.342;2024-01-25T13:00:36;13.30;64.80
19281;DHT22;9774;52.034;5.342;2024-01-25T13:03:03;13.30;64.70
19281;DHT22;9774;52.034;5.342;2024-01-25T13:05:33;13.30;64.80
19281;DHT22;9774;52.034;5.342;2024-01-25T13:08:00;13.30;64.70
19281;DHT22;9774;52.034;5.342;2024-01-25T13:10:28;13.30;64.60
19281;DHT22;9774;52.034;5.342;2024-01-25T13:12:55;13.30;64.60
19281;DHT22;9774;52.034;5.342;2024-01-25T13:15:23;13.30;64.50
19281;DHT22;9774;52.034;5.342;2024-01-25T13:17:51;13.40;64.50
19281;DHT22;9774;52.034;5.342;2024-01-25T13:20:19;13.40;64.40
19281;DHT22;9774;52.034;5.342;2024-01-25T13:22:46;13.40;64.40
19281;DHT22;9774;52.034;5.342;2024-01-25T13:25:13;13.30;64.40
19281;DHT22;9774;52.034;5.342;2024-01-25T13:27:40;13.40;64.40
19281;DHT22;9774;52.034;5.342;2024-01-25T13:30:08;13.40;64.40
19281;DHT22;9774;52.034;5.342;2024-01-25T13:32:38;13.40;64.40
19281;DHT22;9774;52.034;5.342;2024-01-25T13:35:06;13.40;64.30
19281;DHT22;9774;52.034;5.342;2024-01-25T13:37:33;13.40;64.30
19281;DHT22;9774;52.034;5.342;2024-01-25T13:40:00;13.40;64.30
19281;DHT22;9774;52.034;5.342;2024-01-25T13:42:29;13.40;64.30
19281;DHT22;9774;52.034;5.342;2024-01-25T13:44:57;13.40;64.20
19281;DHT22;9774;52.034;5.342;2024-01-25T13:47:24;13.40;64.20
19281;DHT22;9774;52.034;5.342;2024-01-25T13:49:52;13.40;64.20
19281;DHT22;9774;52.034;5.342;2024-01-25T13:52:19;13.40;65.00
19281;DHT22;9774;52.034;5.342;2024-01-25T13:54:47;13.40;64.10
19281;DHT22;9774;52.034;5.342;2024-01-25T13:57:15;13.40;64.10
19281;DHT22;9774;52.034;5.342;2024-01-25T13:59:44;13.30;64.10
19281;DHT22;9774;52.034;5.342;2024-01-25T14:02:11;13.40;64.10
19281;DHT22;9774;52.034;5.342;2024-01-25T14:04:38;13.30;64.10
19281;DHT22;9774;52.034;5.342;2024-01-25T14:07:06;13.30;64.10
19281;DHT22;9774;52.034;5.342;2024-01-25T14:09:34;13.30;64.20
19281;DHT22;9774;52.034;5.342;2024-01-25T14:12:03;13.30;64.30
19281;DHT22;9774;52.034;5.342;2024-01-25T14:14:31;13.30;64.30
19281;DHT22;9774;52.034;5.342;2024-01-25T14:16:58;13.40;64.30
19281;DHT22;9774;52.034;5.342;2024-01-25T14:19:25;13.30;64.20
19281;DHT22;9774;52.034;5.342;2024-01-25T14:21:52;13.40;64.20
19281;DHT22;9774;52.034;5.342;2024-01-25T14:24:21;13.30;64.20
19281;DHT22;9774;52.034;5.342;2024-01-25T14:26:48;13.30;64.30
19281;DHT22;9774;52.034;5.342;2024-01-25T14:29:15;13.30;64.20
19281;DHT22;9774;52.034;5.342;2024-01-25T14:31:42;13.30;64.20
19281;DHT22;9774;52.034;5.342;2024-01-25T14:34:09;13.30;64.20
19281;DHT22;9774;52.034;5.342;2024-01-25T14:36:36;13.30;64.30
19281;DHT22;9774;52.034;5.342;2024-01-25T14:39:03;13.30;64.30
19281;DHT22;9774;52.034;5.342;2024-01-25T14:41:35;13.30;64.30
19281;DHT22;9774;52.034;5.342;2024-01-25T14:44:02;13.30;64.40
19281;DHT22;9774;52.034;5.342;2024-01-25T14:46:30;13.30;64.40
19281;DHT22;9774;52.034;5.342;2024-01-25T14:48:57;13.30;64.40
19281;DHT22;9774;52.034;5.342;2024-01-25T14:51:25;13.20;64.40
19281;DHT22;9774;52.034;5.342;2024-01-25T14:53:52;13.20;64.50
19281;DHT22;9774;52.034;5.342;2024-01-25T14:56:19;13.30;64.70
19281;DHT22;9774;52.034;5.342;2024-01-25T14:58:47;13.20;64.70
19281;DHT22;9774;52.034;5.342;2024-01-25T15:01:15;13.20;64.80
19281;DHT22;9774;52.034;5.342;2024-01-25T15:03:44;13.20;64.90
19281;DHT22;9774;52.034;5.342;2024-01-25T15:06:12;13.20;65.60
19281;DHT22;9774;52.034;5.342;2024-01-25T15:08:39;13.20;65.00
19281;DHT22;9774;52.034;5.342;2024-01-25T15:11:06;13.20;65.10
19281;DHT22;9774;52.034;5.342;2024-01-25T15:13:34;13.20;65.10
19281;DHT22;9774;52.034;5.342;2024-01-25T15:16:03;13.20;65.20
19281;DHT22;9774;52.034;5.342;2024-01-25T15:18:30;13.10;65.20
19281;DHT22;9774;52.034;5.342;2024-01-25T15:20:57;13.10;65.40
19281;DHT22;9774;52.034;5.342;2024-01-25T15:23:25;13.10;65.40
19281;DHT22;9774;52.034;5.342;2024-01-25T15:25:52;13.10;65.40
19281;DHT22;9774;52.034;5.342;2024-01-25T15:28:19;13.10;65.60
19281;DHT22;9774;52.034;5.342;2024-01-25T15:30:47;13.00;65.60
19281;DHT22;9774;52.034;5.342;2024-01-25T15:33:16;13.10;65.70
19281;DHT22;9774;52.034;5.342;2024-01-25T15:35:43;13.00;65.70
19281;DHT22;9774;52.034;5.342;2024-01-25T15:38:10;13.00;65.80
19281;DHT22;9774;52.034;5.342;2024-01-25T15:40:41;13.00;65.80
19281;DHT22;9774;52.034;5.342;2024-01-25T15:43:08;13.00;65.90
19281;DHT22;9774;52.034;5.342;2024-01-25T15:45:35;12.90;65.90
19281;DHT22;9774;52.034;5.342;2024-01-25T15:48:02;12.90;66.00
19281;DHT22;9774;52.034;5.342;2024-01-25T15:50:31;12.90;66.10
19281;DHT22;9774;52.034;5.342;2024-01-25T15:52:59;12.90;66.20
19281;DHT22;9774;52.034;5.342;2024-01-25T15:55:26;12.90;66.10